sensor_id;sensor_type;location;lat;lon;timestamp;P1;durP1;ratioP1;P2;durP2;ratioP2
325;SDS011;150;52.352;14.058;2023-08-07T00:01:34;2.90;;;1.60;;
325;SDS011;150;52.352;14.058;2023-08-07T00:04:04;2.42;;;1.48;;
325;SDS011;150;52.352;14.058;2023-08-07T00:06:38;4.53;;;1.83;;
325;SDS011;150;52.352;14.058;2023-08-07T00:09:11;2.85;;;1.38;;
325;SDS011;150;52.352;14.058;2023-08-07T00:11:45;2.95;;;1.42;;
325;SDS011;150;52.352;14.058;2023-08-07T00:14:12;2.20;;;1.60;;
325;SDS011;150;52.352;14.058;2023-08-07T00:16:41;3.13;;;1.70;;
325;SDS011;150;52.352;14.058;2023-08-07T00:19:08;2.13;;;1.23;;
325;SDS011;150;52.352;14.058;2023-08-07T00:21:41;2.00;;;1.67;;
325;SDS011;150;52.352;14.058;2023-08-07T00:24:14;3.28;;;1.67;;
325;SDS011;150;52.352;14.058;2023-08-07T00:26:49;3.75;;;2.05;;
325;SDS011;150;52.352;14.058;2023-08-07T00:29:19;3.28;;;1.60;;
325;SDS011;150;52.352;14.058;2023-08-07T00:31:46;2.67;;;1.90;;
325;SDS011;150;52.352;14.058;2023-08-07T00:34:14;3.30;;;1.70;;
325;SDS011;150;52.352;14.058;2023-08-07T00:36:43;3.03;;;1.60;;
325;SDS011;150;52.352;14.058;2023-08-07T00:39:10;5.43;;;2.00;;
325;SDS011;150;52.352;14.058;2023-08-07T00:41:44;2.33;;;1.92;;
325;SDS011;150;52.352;14.058;2023-08-07T00:44:11;3.65;;;2.55;;
325;SDS011;150;52.352;14.058;2023-08-07T00:46:45;3.10;;;2.10;;
325;SDS011;150;52.352;14.058;2023-08-07T00:49:18;2.22;;;1.55;;
325;SDS011;150;52.352;14.058;2023-08-07T00:51:51;3.77;;;2.30;;
325;SDS011;150;52.352;14.058;2023-08-07T00:54:29;2.90;;;2.00;;
325;SDS011;150;52.352;14.058;2023-08-07T00:56:59;2.55;;;1.83;;
325;SDS011;150;52.352;14.058;2023-08-07T00:59:38;7.20;;;1.98;;
325;SDS011;150;52.352;14.058;2023-08-07T01:02:09;3.28;;;2.40;;
325;SDS011;150;52.352;14.058;2023-08-07T01:04:38;3.95;;;1.95;;
325;SDS011;150;52.352;14.058;2023-08-07T01:07:10;3.58;;;1.95;;
325;SDS011;150;52.352;14.058;2023-08-07T01:09:41;4.70;;;2.00;;
325;SDS011;150;52.352;14.058;2023-08-07T01:12:13;2.88;;;1.90;;
325;SDS011;150;52.352;14.058;2023-08-07T01:14:48;3.78;;;1.80;;
325;SDS011;150;52.352;14.058;2023-08-07T01:17:27;5.40;;;2.00;;
325;SDS011;150;52.352;14.058;2023-08-07T01:19:59;5.70;;;2.30;;
325;SDS011;150;52.352;14.058;2023-08-07T01:22:39;6.50;;;2.30;;
325;SDS011;150;52.352;14.058;2023-08-07T01:25:07;6.55;;;2.60;;
325;SDS011;150;52.352;14.058;2023-08-07T01:27:35;4.60;;;2.10;;
325;SDS011;150;52.352;14.058;2023-08-07T01:30:11;4.18;;;2.10;;
325;SDS011;150;52.352;14.058;2023-08-07T01:32:47;3.00;;;2.20;;
325;SDS011;150;52.352;14.058;2023-08-07T01:35:23;3.15;;;2.50;;
325;SDS011;150;52.352;14.058;2023-08-07T01:38:04;4.10;;;2.50;;
325;SDS011;150;52.352;14.058;2023-08-07T01:40:39;3.10;;;2.20;;
325;SDS011;150;52.352;14.058;2023-08-07T01:43:25;3.72;;;2.20;;
325;SDS011;150;52.352;14.058;2023-08-07T01:46:27;5.15;;;2.20;;
325;SDS011;150;52.352;14.058;2023-08-07T01:49:05;2.95;;;2.20;;
325;SDS011;150;52.352;14.058;2023-08-07T01:51:57;2.97;;;2.13;;
325;SDS011;150;52.352;14.058;2023-08-07T01:54:48;3.25;;;2.17;;
325;SDS011;150;52.352;14.058;2023-08-07T01:57:20;4.53;;;2.60;;
325;SDS011;150;52.352;14.058;2023-08-07T01:59:53;2.95;;;2.05;;
325;SDS011;150;52.352;14.058;2023-08-07T02:02:34;4.20;;;2.20;;
325;SDS011;150;52.352;14.058;2023-08-07T02:05:06;5.05;;;2.40;;
325;SDS011;150;52.352;14.058;2023-08-07T02:07:38;3.53;;;2.20;;
325;SDS011;150;52.352;14.058;2023-08-07T02:10:11;2.92;;;2.30;;
325;SDS011;150;52.352;14.058;2023-08-07T02:12:46;2.75;;;2.13;;
325;SDS011;150;52.352;14.058;2023-08-07T02:15:12;5.25;;;2.30;;
325;SDS011;150;52.352;14.058;2023-08-07T02:17:39;4.60;;;2.60;;
325;SDS011;150;52.352;14.058;2023-08-07T02:20:15;4.45;;;2.67;;
325;SDS011;150;52.352;14.058;2023-08-07T02:22:48;4.88;;;2.10;;
325;SDS011;150;52.352;14.058;2023-08-07T02:28:05;3.50;;;2.58;;
325;SDS011;150;52.352;14.058;2023-08-07T02:30:31;5.70;;;2.90;;
325;SDS011;150;52.352;14.058;2023-08-07T02:32:58;5.40;;;3.05;;
325;SDS011;150;52.352;14.058;2023-08-07T02:35:24;4.57;;;2.53;;
325;SDS011;150;52.352;14.058;2023-08-07T02:37:51;5.35;;;2.55;;
325;SDS011;150;52.352;14.058;2023-08-07T02:40:18;4.32;;;2.67;;
325;SDS011;150;52.352;14.058;2023-08-07T02:42:44;3.70;;;2.10;;
325;SDS011;150;52.352;14.058;2023-08-07T02:45:12;4.45;;;2.47;;
325;SDS011;150;52.352;14.058;2023-08-07T02:47:39;2.80;;;2.00;;
325;SDS011;150;52.352;14.058;2023-08-07T02:50:06;3.20;;;2.50;;
325;SDS011;150;52.352;14.058;2023-08-07T02:52:33;3.25;;;2.17;;
325;SDS011;150;52.352;14.058;2023-08-07T02:55:02;3.20;;;2.60;;
325;SDS011;150;52.352;14.058;2023-08-07T02:57:29;4.25;;;2.35;;
325;SDS011;150;52.352;14.058;2023-08-07T02:59:56;2.60;;;2.30;;
325;SDS011;150;52.352;14.058;2023-08-07T03:02:24;3.58;;;2.20;;
325;SDS011;150;52.352;14.058;2023-08-07T03:04:51;7.43;;;2.72;;
325;SDS011;150;52.352;14.058;2023-08-07T03:07:17;3.67;;;2.60;;
325;SDS011;150;52.352;14.058;2023-08-07T03:09:45;4.07;;;3.00;;
325;SDS011;150;52.352;14.058;2023-08-07T03:12:12;3.23;;;2.23;;
325;SDS011;150;52.352;14.058;2023-08-07T03:14:38;4.25;;;2.80;;
325;SDS011;150;52.352;14.058;2023-08-07T03:17:05;4.18;;;2.50;;
325;SDS011;150;52.352;14.058;2023-08-07T03:19:33;15.60;;;11.10;;
325;SDS011;150;52.352;14.058;2023-08-07T03:22:00;6.07;;;3.00;;
325;SDS011;150;52.352;14.058;2023-08-07T03:24:26;4.70;;;2.97;;
325;SDS011;150;52.352;14.058;2023-08-07T03:26:53;3.80;;;2.55;;
325;SDS011;150;52.352;14.058;2023-08-07T03:29:20;4.22;;;2.70;;
325;SDS011;150;52.352;14.058;2023-08-07T03:31:46;4.70;;;2.90;;
325;SDS011;150;52.352;14.058;2023-08-07T03:34:13;2.60;;;2.13;;
325;SDS011;150;52.352;14.058;2023-08-07T03:36:41;3.17;;;2.50;;
325;SDS011;150;52.352;14.058;2023-08-07T03:39:07;5.80;;;3.60;;
325;SDS011;150;52.352;14.058;2023-08-07T03:41:35;3.95;;;2.70;;
325;SDS011;150;52.352;14.058;2023-08-07T03:44:02;4.88;;;2.97;;
325;SDS011;150;52.352;14.058;2023-08-07T03:46:30;4.75;;;3.40;;
325;SDS011;150;52.352;14.058;2023-08-07T03:48:57;4.80;;;3.50;;
325;SDS011;150;52.352;14.058;2023-08-07T03:51:23;4.50;;;3.60;;
325;SDS011;150;52.352;14.058;2023-08-07T03:53:51;4.60;;;3.00;;
325;SDS011;150;52.352;14.058;2023-08-07T03:56:18;3.90;;;2.80;;
325;SDS011;150;52.352;14.058;2023-08-07T03:58:44;4.75;;;3.58;;
325;SDS011;150;52.352;14.058;2023-08-07T04:01:11;4.18;;;2.92;;
325;SDS011;150;52.352;14.058;2023-08-07T04:03:38;7.00;;;3.60;;
325;SDS011;150;52.352;14.058;2023-08-07T04:06:04;5.68;;;3.40;;
325;SDS011;150;52.352;14.058;2023-08-07T04:08:31;3.53;;;2.93;;
325;SDS011;150;52.352;14.058;2023-08-07T04:11:00;5.40;;;3.15;;
325;SDS011;150;52.352;14.058;2023-08-07T04:13:27;5.50;;;2.97;;
325;SDS011;150;52.352;14.058;2023-08-07T04:15:54;3.78;;;3.15;;
325;SDS011;150;52.352;14.058;2023-08-07T04:18:21;4.20;;;2.93;;
325;SDS011;150;52.352;14.058;2023-08-07T04:20:52;5.18;;;3.30;;
325;SDS011;150;52.352;14.058;2023-08-07T04:23:19;4.30;;;3.15;;
325;SDS011;150;52.352;14.058;2023-08-07T04:25:46;6.07;;;4.00;;
325;SDS011;150;52.352;14.058;2023-08-07T04:28:14;5.00;;;3.55;;
325;SDS011;150;52.352;14.058;2023-08-07T04:30:41;8.50;;;3.78;;
325;SDS011;150;52.352;14.058;2023-08-07T04:33:08;4.97;;;3.67;;
325;SDS011;150;52.352;14.058;2023-08-07T04:35:35;5.57;;;4.38;;
325;SDS011;150;52.352;14.058;2023-08-07T04:38:02;5.13;;;3.70;;
325;SDS011;150;52.352;14.058;2023-08-07T04:40:28;5.93;;;3.30;;
325;SDS011;150;52.352;14.058;2023-08-07T04:42:55;5.30;;;3.60;;
325;SDS011;150;52.352;14.058;2023-08-07T04:45:24;5.20;;;3.70;;
325;SDS011;150;52.352;14.058;2023-08-07T04:47:50;4.63;;;3.00;;
325;SDS011;150;52.352;14.058;2023-08-07T04:50:17;5.43;;;3.03;;
325;SDS011;150;52.352;14.058;2023-08-07T04:52:44;3.10;;;2.60;;
325;SDS011;150;52.352;14.058;2023-08-07T04:55:10;6.72;;;4.28;;
325;SDS011;150;52.352;14.058;2023-08-07T04:57:37;4.05;;;2.90;;
325;SDS011;150;52.352;14.058;2023-08-07T05:00:04;5.72;;;3.42;;
325;SDS011;150;52.352;14.058;2023-08-07T05:02:34;7.18;;;3.65;;
325;SDS011;150;52.352;14.058;2023-08-07T05:05:00;5.07;;;3.90;;
325;SDS011;150;52.352;14.058;2023-08-07T05:07:27;9.20;;;3.90;;
325;SDS011;150;52.352;14.058;2023-08-07T05:09:53;4.70;;;3.60;;
325;SDS011;150;52.352;14.058;2023-08-07T05:12:20;6.28;;;3.80;;
325;SDS011;150;52.352;14.058;2023-08-07T05:14:47;4.63;;;3.33;;
325;SDS011;150;52.352;14.058;2023-08-07T05:17:14;6.95;;;2.92;;
325;SDS011;150;52.352;14.058;2023-08-07T05:19:42;6.60;;;3.30;;
325;SDS011;150;52.352;14.058;2023-08-07T05:22:08;4.50;;;3.20;;
325;SDS011;150;52.352;14.058;2023-08-07T05:24:35;3.70;;;2.90;;
325;SDS011;150;52.352;14.058;2023-08-07T05:27:04;5.50;;;3.45;;
325;SDS011;150;52.352;14.058;2023-08-07T05:29:33;4.13;;;2.95;;
325;SDS011;150;52.352;14.058;2023-08-07T05:31:59;4.28;;;3.30;;
325;SDS011;150;52.352;14.058;2023-08-07T05:34:26;3.83;;;3.00;;
325;SDS011;150;52.352;14.058;2023-08-07T05:36:54;5.32;;;3.08;;
325;SDS011;150;52.352;14.058;2023-08-07T05:39:21;7.03;;;3.13;;
325;SDS011;150;52.352;14.058;2023-08-07T05:41:48;5.22;;;3.00;;
325;SDS011;150;52.352;14.058;2023-08-07T05:44:14;3.60;;;2.77;;
325;SDS011;150;52.352;14.058;2023-08-07T05:46:41;4.18;;;2.78;;
325;SDS011;150;52.352;14.058;2023-08-07T05:49:07;3.13;;;2.40;;
325;SDS011;150;52.352;14.058;2023-08-07T05:51:34;4.53;;;3.10;;
325;SDS011;150;52.352;14.058;2023-08-07T05:54:02;5.88;;;3.13;;
325;SDS011;150;52.352;14.058;2023-08-07T05:56:29;3.60;;;2.40;;
325;SDS011;150;52.352;14.058;2023-08-07T05:58:55;4.20;;;3.03;;
325;SDS011;150;52.352;14.058;2023-08-07T06:01:22;5.20;;;2.60;;
325;SDS011;150;52.352;14.058;2023-08-07T06:03:54;3.93;;;3.00;;
325;SDS011;150;52.352;14.058;2023-08-07T06:06:20;4.78;;;2.85;;
325;SDS011;150;52.352;14.058;2023-08-07T06:08:48;3.70;;;2.47;;
325;SDS011;150;52.352;14.058;2023-08-07T06:11:16;4.22;;;2.70;;
325;SDS011;150;52.352;14.058;2023-08-07T06:13:42;4.70;;;2.33;;
325;SDS011;150;52.352;14.058;2023-08-07T06:16:09;5.05;;;2.78;;
325;SDS011;150;52.352;14.058;2023-08-07T06:18:36;3.30;;;2.33;;
325;SDS011;150;52.352;14.058;2023-08-07T06:21:02;9.18;;;4.47;;
325;SDS011;150;52.352;14.058;2023-08-07T06:23:31;5.07;;;3.40;;
325;SDS011;150;52.352;14.058;2023-08-07T06:25:58;2.60;;;1.90;;
325;SDS011;150;52.352;14.058;2023-08-07T06:28:30;3.13;;;2.67;;
325;SDS011;150;52.352;14.058;2023-08-07T06:31:00;4.53;;;2.80;;
325;SDS011;150;52.352;14.058;2023-08-07T06:33:27;2.75;;;1.88;;
325;SDS011;150;52.352;14.058;2023-08-07T06:35:54;4.07;;;2.42;;
325;SDS011;150;52.352;14.058;2023-08-07T06:38:20;10.87;;;3.00;;
325;SDS011;150;52.352;14.058;2023-08-07T06:40:47;3.28;;;2.50;;
325;SDS011;150;52.352;14.058;2023-08-07T06:43:16;4.80;;;2.97;;
325;SDS011;150;52.352;14.058;2023-08-07T06:45:45;4.10;;;2.67;;
325;SDS011;150;52.352;14.058;2023-08-07T06:48:12;5.38;;;2.28;;
325;SDS011;150;52.352;14.058;2023-08-07T06:50:39;4.63;;;3.03;;
325;SDS011;150;52.352;14.058;2023-08-07T06:53:06;2.88;;;2.20;;
325;SDS011;150;52.352;14.058;2023-08-07T06:55:32;4.20;;;2.30;;
325;SDS011;150;52.352;14.058;2023-08-07T06:57:59;4.00;;;2.10;;
325;SDS011;150;52.352;14.058;2023-08-07T07:00:25;3.70;;;2.28;;
325;SDS011;150;52.352;14.058;2023-08-07T07:02:53;4.05;;;1.88;;
325;SDS011;150;52.352;14.058;2023-08-07T07:05:20;3.70;;;2.13;;
325;SDS011;150;52.352;14.058;2023-08-07T07:07:46;2.90;;;2.17;;
325;SDS011;150;52.352;14.058;2023-08-07T07:10:13;2.88;;;2.20;;
325;SDS011;150;52.352;14.058;2023-08-07T07:12:39;4.60;;;3.00;;
325;SDS011;150;52.352;14.058;2023-08-07T07:15:06;3.08;;;2.20;;
325;SDS011;150;52.352;14.058;2023-08-07T07:17:34;2.55;;;2.03;;
325;SDS011;150;52.352;14.058;2023-08-07T07:20:02;2.20;;;1.40;;
325;SDS011;150;52.352;14.058;2023-08-07T07:22:29;2.20;;;1.50;;
325;SDS011;150;52.352;14.058;2023-08-07T07:24:55;4.50;;;1.25;;
325;SDS011;150;52.352;14.058;2023-08-07T07:27:22;2.88;;;1.42;;
325;SDS011;150;52.352;14.058;2023-08-07T07:29:51;3.25;;;1.70;;
325;SDS011;150;52.352;14.058;2023-08-07T07:32:17;4.30;;;1.50;;
325;SDS011;150;52.352;14.058;2023-08-07T07:34:44;2.72;;;1.70;;
325;SDS011;150;52.352;14.058;2023-08-07T07:37:12;3.70;;;1.60;;
325;SDS011;150;52.352;14.058;2023-08-07T07:39:41;4.22;;;1.88;;
325;SDS011;150;52.352;14.058;2023-08-07T07:42:08;2.90;;;1.80;;
325;SDS011;150;52.352;14.058;2023-08-07T07:44:35;1.88;;;1.30;;
325;SDS011;150;52.352;14.058;2023-08-07T07:47:01;3.07;;;2.00;;
325;SDS011;150;52.352;14.058;2023-08-07T07:49:28;3.50;;;1.67;;
325;SDS011;150;52.352;14.058;2023-08-07T07:51:54;1.83;;;1.25;;
325;SDS011;150;52.352;14.058;2023-08-07T07:54:22;3.45;;;1.40;;
325;SDS011;150;52.352;14.058;2023-08-07T07:56:49;2.40;;;1.50;;
325;SDS011;150;52.352;14.058;2023-08-07T07:59:16;2.40;;;1.17;;
325;SDS011;150;52.352;14.058;2023-08-07T08:01:42;2.40;;;1.40;;
325;SDS011;150;52.352;14.058;2023-08-07T08:04:09;1.88;;;1.10;;
325;SDS011;150;52.352;14.058;2023-08-07T08:06:36;2.00;;;1.20;;
325;SDS011;150;52.352;14.058;2023-08-07T08:09:02;3.45;;;1.50;;
325;SDS011;150;52.352;14.058;2023-08-07T08:11:31;2.50;;;1.13;;
325;SDS011;150;52.352;14.058;2023-08-07T08:13:58;2.03;;;1.10;;
325;SDS011;150;52.352;14.058;2023-08-07T08:16:24;2.80;;;1.17;;
325;SDS011;150;52.352;14.058;2023-08-07T08:18:51;2.13;;;1.27;;
325;SDS011;150;52.352;14.058;2023-08-07T08:21:17;3.60;;;1.60;;
325;SDS011;150;52.352;14.058;2023-08-07T08:23:44;7.47;;;1.80;;
325;SDS011;150;52.352;14.058;2023-08-07T08:26:10;2.70;;;1.50;;
325;SDS011;150;52.352;14.058;2023-08-07T08:28:38;2.95;;;1.20;;
325;SDS011;150;52.352;14.058;2023-08-07T08:31:05;1.80;;;1.10;;
325;SDS011;150;52.352;14.058;2023-08-07T08:33:32;4.70;;;1.80;;
325;SDS011;150;52.352;14.058;2023-08-07T08:35:58;2.00;;;1.30;;
325;SDS011;150;52.352;14.058;2023-08-07T08:38:25;2.17;;;1.20;;
325;SDS011;150;52.352;14.058;2023-08-07T08:40:57;3.47;;;1.08;;
325;SDS011;150;52.352;14.058;2023-08-07T08:43:28;3.15;;;1.30;;
325;SDS011;150;52.352;14.058;2023-08-07T08:46:01;2.30;;;1.40;;
325;SDS011;150;52.352;14.058;2023-08-07T08:48:31;2.38;;;1.40;;
325;SDS011;150;52.352;14.058;2023-08-07T08:51:01;1.60;;;1.00;;
325;SDS011;150;52.352;14.058;2023-08-07T08:53:28;3.50;;;1.40;;
325;SDS011;150;52.352;14.058;2023-08-07T08:55:55;2.95;;;1.40;;
325;SDS011;150;52.352;14.058;2023-08-07T08:58:21;3.90;;;1.33;;
325;SDS011;150;52.352;14.058;2023-08-07T09:00:49;4.03;;;1.73;;
325;SDS011;150;52.352;14.058;2023-08-07T09:03:17;2.08;;;1.30;;
325;SDS011;150;52.352;14.058;2023-08-07T09:05:44;2.88;;;1.40;;
325;SDS011;150;52.352;14.058;2023-08-07T09:08:13;2.60;;;1.10;;
325;SDS011;150;52.352;14.058;2023-08-07T09:10:40;2.70;;;1.40;;
325;SDS011;150;52.352;14.058;2023-08-07T09:13:08;2.63;;;1.40;;
325;SDS011;150;52.352;14.058;2023-08-07T09:15:38;3.55;;;2.00;;
325;SDS011;150;52.352;14.058;2023-08-07T09:18:26;2.67;;;1.70;;
325;SDS011;150;52.352;14.058;2023-08-07T09:20:55;5.40;;;1.70;;
325;SDS011;150;52.352;14.058;2023-08-07T09:23:25;4.10;;;1.90;;
325;SDS011;150;52.352;14.058;2023-08-07T09:25:59;6.13;;;1.98;;
325;SDS011;150;52.352;14.058;2023-08-07T09:28:26;3.80;;;1.95;;
325;SDS011;150;52.352;14.058;2023-08-07T09:30:54;8.15;;;2.28;;
325;SDS011;150;52.352;14.058;2023-08-07T09:33:24;2.33;;;1.42;;
325;SDS011;150;52.352;14.058;2023-08-07T09:35:52;1.90;;;1.60;;
325;SDS011;150;52.352;14.058;2023-08-07T09:38:23;4.70;;;2.10;;
325;SDS011;150;52.352;14.058;2023-08-07T09:40:49;2.85;;;2.17;;
325;SDS011;150;52.352;14.058;2023-08-07T09:43:20;2.83;;;1.90;;
325;SDS011;150;52.352;14.058;2023-08-07T09:45:47;2.10;;;1.60;;
325;SDS011;150;52.352;14.058;2023-08-07T09:48:22;3.60;;;2.10;;
325;SDS011;150;52.352;14.058;2023-08-07T09:50:49;4.03;;;2.00;;
325;SDS011;150;52.352;14.058;2023-08-07T09:53:17;4.70;;;2.13;;
325;SDS011;150;52.352;14.058;2023-08-07T09:55:51;3.13;;;1.60;;
325;SDS011;150;52.352;14.058;2023-08-07T09:58:18;2.13;;;1.40;;
325;SDS011;150;52.352;14.058;2023-08-07T10:00:45;3.58;;;2.10;;
325;SDS011;150;52.352;14.058;2023-08-07T10:03:13;3.22;;;1.92;;
325;SDS011;150;52.352;14.058;2023-08-07T10:05:42;3.10;;;2.03;;
325;SDS011;150;52.352;14.058;2023-08-07T10:08:10;7.07;;;1.98;;
325;SDS011;150;52.352;14.058;2023-08-07T10:10:38;3.60;;;2.45;;
325;SDS011;150;52.352;14.058;2023-08-07T10:13:06;4.13;;;2.20;;
325;SDS011;150;52.352;14.058;2023-08-07T10:15:33;4.00;;;1.90;;
325;SDS011;150;52.352;14.058;2023-08-07T10:18:00;2.70;;;2.00;;
325;SDS011;150;52.352;14.058;2023-08-07T10:20:27;2.15;;;1.52;;
325;SDS011;150;52.352;14.058;2023-08-07T10:22:56;4.53;;;2.25;;
325;SDS011;150;52.352;14.058;2023-08-07T10:25:26;2.88;;;2.13;;
325;SDS011;150;52.352;14.058;2023-08-07T10:27:56;3.55;;;2.30;;
325;SDS011;150;52.352;14.058;2023-08-07T10:30:25;3.20;;;2.30;;
325;SDS011;150;52.352;14.058;2023-08-07T10:32:53;2.50;;;1.90;;
325;SDS011;150;52.352;14.058;2023-08-07T10:35:23;3.00;;;1.98;;
325;SDS011;150;52.352;14.058;2023-08-07T10:37:51;2.92;;;2.28;;
325;SDS011;150;52.352;14.058;2023-08-07T10:40:18;3.60;;;2.10;;
325;SDS011;150;52.352;14.058;2023-08-07T10:42:56;3.08;;;2.15;;
325;SDS011;150;52.352;14.058;2023-08-07T10:45:24;2.80;;;1.80;;
325;SDS011;150;52.352;14.058;2023-08-07T10:48:02;3.20;;;2.00;;
325;SDS011;150;52.352;14.058;2023-08-07T10:50:31;2.50;;;1.45;;
325;SDS011;150;52.352;14.058;2023-08-07T10:52:59;3.17;;;2.20;;
325;SDS011;150;52.352;14.058;2023-08-07T10:55:26;5.43;;;1.20;;
325;SDS011;150;52.352;14.058;2023-08-07T10:57:59;3.70;;;1.70;;
325;SDS011;150;52.352;14.058;2023-08-07T11:00:25;2.40;;;1.25;;
325;SDS011;150;52.352;14.058;2023-08-07T11:02:53;2.28;;;1.10;;
325;SDS011;150;52.352;14.058;2023-08-07T11:05:19;2.60;;;1.25;;
325;SDS011;150;52.352;14.058;2023-08-07T11:07:46;1.50;;;0.90;;
325;SDS011;150;52.352;14.058;2023-08-07T11:10:13;2.20;;;1.02;;
325;SDS011;150;52.352;14.058;2023-08-07T11:12:41;3.20;;;1.37;;
325;SDS011;150;52.352;14.058;2023-08-07T11:15:12;2.50;;;1.23;;
325;SDS011;150;52.352;14.058;2023-08-07T11:17:40;3.95;;;1.92;;
325;SDS011;150;52.352;14.058;2023-08-07T11:20:07;2.20;;;1.00;;
325;SDS011;150;52.352;14.058;2023-08-07T11:22:37;2.13;;;0.90;;
325;SDS011;150;52.352;14.058;2023-08-07T11:25:06;2.20;;;1.35;;
325;SDS011;150;52.352;14.058;2023-08-07T11:27:36;2.60;;;1.30;;
325;SDS011;150;52.352;14.058;2023-08-07T11:30:03;2.47;;;1.20;;
325;SDS011;150;52.352;14.058;2023-08-07T11:32:32;2.17;;;1.27;;
325;SDS011;150;52.352;14.058;2023-08-07T11:34:59;3.00;;;1.27;;
325;SDS011;150;52.352;14.058;2023-08-07T11:37:28;2.90;;;1.83;;
325;SDS011;150;52.352;14.058;2023-08-07T11:39:59;4.50;;;3.90;;
325;SDS011;150;52.352;14.058;2023-08-07T11:42:27;2.90;;;1.33;;
325;SDS011;150;52.352;14.058;2023-08-07T11:44:56;1.65;;;0.88;;
325;SDS011;150;52.352;14.058;2023-08-07T11:47:22;2.33;;;1.10;;
325;SDS011;150;52.352;14.058;2023-08-07T11:49:51;2.47;;;0.90;;
325;SDS011;150;52.352;14.058;2023-08-07T11:52:18;2.58;;;0.90;;
325;SDS011;150;52.352;14.058;2023-08-07T11:54:47;2.03;;;0.95;;
325;SDS011;150;52.352;14.058;2023-08-07T11:57:15;2.90;;;1.00;;
325;SDS011;150;52.352;14.058;2023-08-07T11:59:42;2.10;;;1.00;;
325;SDS011;150;52.352;14.058;2023-08-07T12:02:12;3.38;;;1.20;;
325;SDS011;150;52.352;14.058;2023-08-07T12:04:39;2.30;;;1.13;;
325;SDS011;150;52.352;14.058;2023-08-07T12:07:07;1.90;;;0.90;;
325;SDS011;150;52.352;14.058;2023-08-07T12:09:36;4.00;;;0.82;;
325;SDS011;150;52.352;14.058;2023-08-07T12:12:03;4.00;;;1.10;;
325;SDS011;150;52.352;14.058;2023-08-07T12:14:30;2.17;;;1.05;;
325;SDS011;150;52.352;14.058;2023-08-07T12:16:57;2.38;;;1.10;;
325;SDS011;150;52.352;14.058;2023-08-07T12:19:34;2.20;;;1.00;;
325;SDS011;150;52.352;14.058;2023-08-07T12:22:06;3.20;;;1.10;;
325;SDS011;150;52.352;14.058;2023-08-07T12:24:36;2.10;;;1.25;;
325;SDS011;150;52.352;14.058;2023-08-07T12:27:03;2.30;;;1.40;;
325;SDS011;150;52.352;14.058;2023-08-07T12:29:30;2.00;;;1.40;;
325;SDS011;150;52.352;14.058;2023-08-07T12:31:56;1.50;;;0.80;;
325;SDS011;150;52.352;14.058;2023-08-07T12:34:24;1.67;;;1.00;;
325;SDS011;150;52.352;14.058;2023-08-07T12:36:51;1.60;;;0.80;;
325;SDS011;150;52.352;14.058;2023-08-07T12:39:19;2.00;;;0.90;;
325;SDS011;150;52.352;14.058;2023-08-07T12:41:46;4.00;;;1.10;;
325;SDS011;150;52.352;14.058;2023-08-07T12:44:14;2.10;;;1.10;;
325;SDS011;150;52.352;14.058;2023-08-07T12:46:41;3.30;;;1.20;;
325;SDS011;150;52.352;14.058;2023-08-07T12:49:08;2.30;;;1.02;;
325;SDS011;150;52.352;14.058;2023-08-07T12:51:35;2.50;;;0.95;;
325;SDS011;150;52.352;14.058;2023-08-07T12:54:02;2.28;;;1.13;;
325;SDS011;150;52.352;14.058;2023-08-07T12:56:30;2.13;;;1.35;;
325;SDS011;150;52.352;14.058;2023-08-07T12:58:57;3.00;;;1.15;;
325;SDS011;150;52.352;14.058;2023-08-07T13:01:23;2.15;;;1.10;;
325;SDS011;150;52.352;14.058;2023-08-07T13:03:50;2.50;;;1.40;;
325;SDS011;150;52.352;14.058;2023-08-07T13:06:17;1.83;;;0.90;;
325;SDS011;150;52.352;14.058;2023-08-07T13:08:44;3.60;;;1.20;;
325;SDS011;150;52.352;14.058;2023-08-07T13:11:11;4.10;;;1.58;;
325;SDS011;150;52.352;14.058;2023-08-07T13:13:39;4.68;;;1.60;;
325;SDS011;150;52.352;14.058;2023-08-07T13:16:06;3.50;;;1.00;;
325;SDS011;150;52.352;14.058;2023-08-07T13:18:33;2.60;;;1.02;;
325;SDS011;150;52.352;14.058;2023-08-07T13:20:59;2.92;;;0.90;;
325;SDS011;150;52.352;14.058;2023-08-07T13:23:26;2.63;;;0.90;;
325;SDS011;150;52.352;14.058;2023-08-07T13:25:53;2.40;;;0.90;;
325;SDS011;150;52.352;14.058;2023-08-07T13:28:20;3.78;;;1.00;;
325;SDS011;150;52.352;14.058;2023-08-07T13:30:48;2.83;;;1.43;;
325;SDS011;150;52.352;14.058;2023-08-07T13:33:16;3.95;;;0.90;;
325;SDS011;150;52.352;14.058;2023-08-07T13:35:45;3.83;;;0.80;;
325;SDS011;150;52.352;14.058;2023-08-07T13:38:11;2.05;;;0.80;;
325;SDS011;150;52.352;14.058;2023-08-07T13:40:40;2.92;;;0.90;;
325;SDS011;150;52.352;14.058;2023-08-07T13:43:09;5.80;;;1.17;;
325;SDS011;150;52.352;14.058;2023-08-07T13:45:36;2.00;;;1.05;;
325;SDS011;150;52.352;14.058;2023-08-07T13:48:04;4.25;;;1.27;;
325;SDS011;150;52.352;14.058;2023-08-07T13:50:34;2.55;;;1.02;;
325;SDS011;150;52.352;14.058;2023-08-07T13:53:02;3.30;;;1.00;;
325;SDS011;150;52.352;14.058;2023-08-07T13:55:29;2.60;;;1.25;;
325;SDS011;150;52.352;14.058;2023-08-07T13:57:55;4.60;;;1.00;;
325;SDS011;150;52.352;14.058;2023-08-07T14:00:22;2.60;;;1.02;;
325;SDS011;150;52.352;14.058;2023-08-07T14:02:49;4.30;;;0.95;;
325;SDS011;150;52.352;14.058;2023-08-07T14:05:16;3.00;;;0.85;;
325;SDS011;150;52.352;14.058;2023-08-07T14:07:43;2.10;;;1.40;;
325;SDS011;150;52.352;14.058;2023-08-07T14:10:10;2.40;;;1.50;;
325;SDS011;150;52.352;14.058;2023-08-07T14:12:36;3.75;;;1.70;;
325;SDS011;150;52.352;14.058;2023-08-07T14:15:03;3.80;;;1.40;;
325;SDS011;150;52.352;14.058;2023-08-07T14:17:30;2.30;;;1.10;;
325;SDS011;150;52.352;14.058;2023-08-07T14:19:57;3.35;;;1.40;;
325;SDS011;150;52.352;14.058;2023-08-07T14:22:25;5.80;;;1.20;;
325;SDS011;150;52.352;14.058;2023-08-07T14:24:52;3.25;;;1.40;;
325;SDS011;150;52.352;14.058;2023-08-07T14:27:18;2.65;;;1.40;;
325;SDS011;150;52.352;14.058;2023-08-07T14:29:45;3.37;;;1.40;;
325;SDS011;150;52.352;14.058;2023-08-07T14:32:12;2.75;;;0.95;;
325;SDS011;150;52.352;14.058;2023-08-07T14:34:38;2.70;;;1.50;;
325;SDS011;150;52.352;14.058;2023-08-07T14:37:05;4.30;;;1.40;;
325;SDS011;150;52.352;14.058;2023-08-07T14:39:33;4.65;;;1.60;;
325;SDS011;150;52.352;14.058;2023-08-07T14:41:59;3.47;;;1.10;;
325;SDS011;150;52.352;14.058;2023-08-07T14:44:28;3.40;;;1.50;;
325;SDS011;150;52.352;14.058;2023-08-07T14:46:55;5.00;;;1.40;;
325;SDS011;150;52.352;14.058;2023-08-07T14:49:21;4.88;;;1.73;;
325;SDS011;150;52.352;14.058;2023-08-07T14:51:48;6.47;;;1.38;;
325;SDS011;150;52.352;14.058;2023-08-07T14:54:15;2.60;;;1.40;;
325;SDS011;150;52.352;14.058;2023-08-07T14:56:43;3.30;;;1.40;;
325;SDS011;150;52.352;14.058;2023-08-07T14:59:09;4.23;;;1.23;;
325;SDS011;150;52.352;14.058;2023-08-07T15:01:36;2.95;;;1.00;;
325;SDS011;150;52.352;14.058;2023-08-07T15:04:03;3.45;;;1.48;;
325;SDS011;150;52.352;14.058;2023-08-07T15:06:29;2.55;;;1.20;;
325;SDS011;150;52.352;14.058;2023-08-07T15:08:56;4.90;;;1.20;;
325;SDS011;150;52.352;14.058;2023-08-07T15:11:23;7.60;;;2.00;;
325;SDS011;150;52.352;14.058;2023-08-07T15:13:51;4.57;;;2.00;;
325;SDS011;150;52.352;14.058;2023-08-07T15:16:18;5.22;;;2.10;;
325;SDS011;150;52.352;14.058;2023-08-07T15:18:45;5.68;;;2.08;;
325;SDS011;150;52.352;14.058;2023-08-07T15:21:11;7.00;;;1.70;;
325;SDS011;150;52.352;14.058;2023-08-07T15:23:38;5.30;;;1.80;;
325;SDS011;150;52.352;14.058;2023-08-07T15:26:04;4.82;;;1.67;;
325;SDS011;150;52.352;14.058;2023-08-07T15:28:31;5.25;;;1.77;;
325;SDS011;150;52.352;14.058;2023-08-07T15:30:59;2.53;;;1.50;;
325;SDS011;150;52.352;14.058;2023-08-07T15:33:26;3.00;;;1.23;;
325;SDS011;150;52.352;14.058;2023-08-07T15:35:53;4.00;;;1.30;;
325;SDS011;150;52.352;14.058;2023-08-07T15:38:20;2.38;;;1.27;;
325;SDS011;150;52.352;14.058;2023-08-07T15:40:47;4.03;;;1.15;;